1883 NOT_NAMED (1883335S16061)


IBTrACS version v04r00. Visit IBTrACS website for data access.
Please direct all questions to the IBTrACS Q and A forum

Storm track - Intensity - Wind Radii - Intensity Data - Source Data - All data

Summary Information

Storm ID 1883335S16061
Start Dec 1 06Z
End Dec 8 06Z
ATCF IDs
Track status Best track data.

Storm track plot

Map of storm track

Intensity plots

No Intensity information for this storm


Radial wind information

No radial wind information for this storm


Position and Intensity Table

BASIN ISO_TIME_________ NATURE LAT LON
degrees north degrees east
SI 1883-12-01 06:00:00 NR -15.90 60.90
SI 09:00:00 NR -15.99 60.77
SI 12:00:00 NR -16.09 60.64
SI 15:00:00 NR -16.19 60.50
SI 18:00:00 NR -16.31 60.35
SI 21:00:00 NR -16.43 60.19
SI 1883-12-02 00:00:00 NR -16.57 60.01
SI 03:00:00 NR -16.72 59.82
SI 06:00:00 NR -16.90 59.60
SI 09:00:00 NR -17.10 59.36
SI 12:00:00 NR -17.32 59.10
SI 15:00:00 NR -17.55 58.82
SI 18:00:00 NR -17.79 58.54
SI 21:00:00 NR -18.04 58.27
SI 1883-12-03 00:00:00 NR -18.30 57.99
SI 03:00:00 NR -18.55 57.74
SI 06:00:00 NR -18.80 57.50
SI 09:00:00 NR -19.01 57.27
SI 12:00:00 NR -19.22 57.05
SI 15:00:00 NR -19.42 56.85
SI 18:00:00 NR -19.63 56.68
SI 21:00:00 NR -19.85 56.53
SI 1883-12-04 00:00:00 NR -20.08 56.41
SI 03:00:00 NR -20.33 56.34
SI 06:00:00 NR -20.60 56.30
SI 09:00:00 NR -20.93 56.30
SI 12:00:00 NR -21.28 56.34
SI 15:00:00 NR -21.65 56.42
SI 18:00:00 NR -22.03 56.54
SI 21:00:00 NR -22.40 56.68
SI 1883-12-05 00:00:00 NR -22.76 56.84
SI 03:00:00 NR -23.10 57.01
SI 06:00:00 NR -23.40 57.20
SI 09:00:00 NR -23.65 57.37
SI 12:00:00 NR -23.87 57.55
SI 15:00:00 NR -24.06 57.74
SI 18:00:00 NR -24.23 57.94
SI 21:00:00 NR -24.39 58.15
SI 1883-12-06 00:00:00 NR -24.54 58.36
SI 03:00:00 NR -24.67 58.58
SI 06:00:00 NR -24.80 58.80
SI 09:00:00 NR -24.95 59.01
SI 12:00:00 NR -25.09 59.23
SI 15:00:00 NR -25.23 59.44
SI 18:00:00 NR -25.35 59.66
SI 21:00:00 NR -25.47 59.87
SI 1883-12-07 00:00:00 NR -25.59 60.09
SI 03:00:00 NR -25.70 60.30
SI 06:00:00 NR -25.80 60.50
SI 09:00:00 NR -25.90 60.70
SI 12:00:00 NR -25.99 60.89
SI 15:00:00 NR -26.08 61.08
SI 18:00:00 NR -26.17 61.27
SI 21:00:00 NR -26.26 61.46
SI 1883-12-08 00:00:00 NR -26.34 61.64
SI 03:00:00 NR -26.42 61.82
SI 06:00:00 NR -26.50 62.00

Source Information

Agency Information
USA
TOKYO
CMA
HKO
NEWDELHI
REUNION WMO-Best-Tracks.txt:Line=1336:xxxx883197
BOM
NADI
WELLINGTON
DS824
TD9636
TD9635
NEUMANN
MLC

All available IBTrACS Data

SEASON BASIN SUBBASIN ISO_TIME_________ NATURE LAT LON WMO AGENCY DIST2LAND LANDFALL IFLAG USA SSHS REUNION LAT REUNION LON REUNION TYPE REUNION TNUM STORM SPEED STORM DIR
Year degrees north degrees east km km 1 degrees north degrees east 1 kts degrees
1884 SI MM 1883-12-01 06:00:00 NR -15.90 60.90 reunion 579 563 _____O________ -1 -15.90 60.90 99 9.90 3 233
1884 SI MM 09:00:00 NR -15.99 60.77 563 542 _____P________ -1 -15.99 60.77 99 3 233
1884 SI MM 12:00:00 NR -16.09 60.64 542 527 _____P________ -1 -16.09 60.64 99 3 232
1884 SI MM 15:00:00 NR -16.19 60.50 527 511 _____P________ -1 -16.19 60.50 99 4 232
1884 SI MM 18:00:00 NR -16.31 60.35 511 490 _____P________ -1 -16.31 60.35 99 4 231
1884 SI MM 21:00:00 NR -16.43 60.19 490 460 _____P________ -1 -16.43 60.19 99 4 231
1884 SI MM 1883-12-02 00:00:00 NR -16.57 60.01 460 440 _____P________ -1 -16.57 60.01 99 5 230
1884 SI MM 03:00:00 NR -16.72 59.82 440 410 _____P________ -1 -16.72 59.82 99 5 230
1884 SI MM 06:00:00 NR -16.90 59.60 reunion 410 380 _____O________ -1 -16.90 59.60 99 9.90 6 230
1884 SI MM 09:00:00 NR -17.10 59.36 380 346 _____P________ -1 -17.10 59.36 99 6 229
1884 SI MM 12:00:00 NR -17.32 59.10 346 313 _____P________ -1 -17.32 59.10 99 7 229
1884 SI MM 15:00:00 NR -17.55 58.82 313 274 _____P________ -1 -17.55 58.82 99 7 228
1884 SI MM 18:00:00 NR -17.79 58.54 270 243 _____P________ -1 -17.79 58.54 99 7 227
1884 SI MM 21:00:00 NR -18.04 58.27 243 203 _____P________ -1 -18.04 58.27 99 7 226
1884 SI MM 1883-12-03 00:00:00 NR -18.30 57.99 203 179 _____P________ -1 -18.30 57.99 99 7 225
1884 SI MM 03:00:00 NR -18.55 57.74 167 145 _____P________ -1 -18.55 57.74 99 7 223
1884 SI MM 06:00:00 NR -18.80 57.50 reunion 145 124 _____O________ -1 -18.80 57.50 99 9.90 6 224
1884 SI MM 09:00:00 NR -19.01 57.27 124 109 _____P________ -1 -19.01 57.27 99 6 226
1884 SI MM 12:00:00 NR -19.22 57.05 109 100 _____P________ -1 -19.22 57.05 99 6 224
1884 SI MM 15:00:00 NR -19.42 56.85 100 99 _____P________ -1 -19.42 56.85 99 5 220
1884 SI MM 18:00:00 NR -19.63 56.68 100 94 _____P________ -1 -19.63 56.68 99 5 215
1884 SI MM 21:00:00 NR -19.85 56.53 104 99 _____P________ -1 -19.85 56.53 99 5 209
1884 SI MM 1883-12-04 00:00:00 NR -20.08 56.41 103 96 _____P________ -1 -20.08 56.41 99 5 201
1884 SI MM 03:00:00 NR -20.33 56.34 100 76 _____P________ -1 -20.33 56.34 99 5 192
1884 SI MM 06:00:00 NR -20.60 56.30 reunion 76 56 _____O________ -1 -20.60 56.30 99 9.90 6 184
1884 SI MM 09:00:00 NR -20.93 56.30 56 51 _____P________ -1 -20.93 56.30 99 7 177
1884 SI MM 12:00:00 NR -21.28 56.34 51 51 _____P________ -1 -21.28 56.34 99 7 171
1884 SI MM 15:00:00 NR -21.65 56.42 76 76 _____P________ -1 -21.65 56.42 99 8 166
1884 SI MM 18:00:00 NR -22.03 56.54 106 106 _____P________ -1 -22.03 56.54 99 8 163
1884 SI MM 21:00:00 NR -22.40 56.68 154 154 _____P________ -1 -22.40 56.68 99 8 159
1884 SI MM 1883-12-05 00:00:00 NR -22.76 56.84 196 196 _____P________ -1 -22.76 56.84 99 8 156
1884 SI MM 03:00:00 NR -23.10 57.01 236 236 _____P________ -1 -23.10 57.01 99 7 152
1884 SI MM 06:00:00 NR -23.40 57.20 reunion 275 275 _____O________ -1 -23.40 57.20 99 9.90 6 150
1884 SI MM 09:00:00 NR -23.65 57.37 305 305 _____P________ -1 -23.65 57.37 99 6 146
1884 SI MM 12:00:00 NR -23.87 57.55 338 338 _____P________ -1 -23.87 57.55 99 5 141
1884 SI MM 15:00:00 NR -24.06 57.74 368 368 _____P________ -1 -24.06 57.74 99 5 136
1884 SI MM 18:00:00 NR -24.23 57.94 389 389 _____P________ -1 -24.23 57.94 99 5 131
1884 SI MM 21:00:00 NR -24.39 58.15 424 424 _____P________ -1 -24.39 58.15 99 5 128
1884 SI MM 1883-12-06 00:00:00 NR -24.54 58.36 445 445 _____P________ -1 -24.54 58.36 99 5 125
1884 SI MM 03:00:00 NR -24.67 58.58 475 475 _____P________ -1 -24.67 58.58 99 5 124
1884 SI MM 06:00:00 NR -24.80 58.80 reunion 493 493 _____O________ -1 -24.80 58.80 99 9.90 5 126
1884 SI MM 09:00:00 NR -24.95 59.01 509 509 _____P________ -1 -24.95 59.01 99 5 127
1884 SI MM 12:00:00 NR -25.09 59.23 536 536 _____P________ -1 -25.09 59.23 99 5 125
1884 SI MM 15:00:00 NR -25.23 59.44 553 553 _____P________ -1 -25.23 59.44 99 5 124
1884 SI MM 18:00:00 NR -25.35 59.66 584 584 _____P________ -1 -25.35 59.66 99 5 123
1884 SI MM 21:00:00 NR -25.47 59.87 602 602 _____P________ -1 -25.47 59.87 99 5 121
1884 SI MM 1883-12-07 00:00:00 NR -25.59 60.09 620 620 _____P________ -1 -25.59 60.09 99 4 120
1884 SI MM 03:00:00 NR -25.70 60.30 639 639 _____P________ -1 -25.70 60.30 99 4 120
1884 SI MM 06:00:00 NR -25.80 60.50 reunion 657 657 _____O________ -1 -25.80 60.50 99 9.90 4 119
1884 SI MM 09:00:00 NR -25.90 60.70 676 676 _____P________ -1 -25.90 60.70 99 4 119
1884 SI MM 12:00:00 NR -25.99 60.89 696 696 _____P________ -1 -25.99 60.89 99 4 118
1884 SI MM 15:00:00 NR -26.08 61.08 715 715 _____P________ -1 -26.08 61.08 99 4 118
1884 SI MM 18:00:00 NR -26.17 61.27 735 735 _____P________ -1 -26.17 61.27 99 4 117
1884 SI MM 21:00:00 NR -26.26 61.46 755 755 _____P________ -1 -26.26 61.46 99 4 117
1884 SI MM 1883-12-08 00:00:00 NR -26.34 61.64 760 760 _____P________ -1 -26.34 61.64 99 4 117
1884 SI MM 03:00:00 NR -26.42 61.82 780 780 _____P________ -1 -26.42 61.82 99 4 117
1884 SI MM 06:00:00 NR -26.50 62.00 reunion 800 _____O________ -1 -26.50 62.00 99 9.90 4 116